Auckland, New Zealand
Current Conditions -  °F | °C
As of 9:30 PM on Saturday 25 Oct 2014 (Local Time) from NZAA Reporting Station
Few Clouds Few Clouds  
Wind Chill: 12°   Ceiling: Unl
Heat Index: 12°   Visibility: 6mi
Dew Point:   Wind: 12mph
Humidity: 77%   Direction: 200°SSW
Pressure: 30.21"   Gusts: NA
Location:  36.85°S, 174.77°E
Report Text: NZAA 250930Z AUTO 20010KT 9999 FEW032/// 12/08 Q1023 NOSIG
Loading
Personal Weather Stations






























Interactive Weather Map
Tropical Storm Tracking
New forecast layout! Learn more

10-Day Weather Forecast

Advertisements
Track Severe Weather on mobile